Terminal Aerodrome Forecast
Issued by NWS

Home | Current Version | Previous Version | Text Only | Print | Product List | Glossary On
Versions: 1 2 3 4 5 6 7 8 9 10 11 12 13 14 15 16 17 18 19 20 21 22 23 24 25 26 27 28
000
FTUS43 KJKL 170500
TAFSJS
TAF
KSJS 170534Z 1706/1806 00000KT 4SM BR OVC015
     FM170800 00000KT 2SM BR OVC008
     FM171000 00000KT 1SM BR OVC004
     FM171300 VRB03KT 2SM BR SCT004 BKN008 OVC020
     FM171400 VRB03KT P6SM SCT008 BKN020
     FM171600 33004KT P6SM SCT035=

USA.gov is the U.S. government's official web portal to all federal, state and local government web resources and services.